sensor_id;sensor_type;location;lat;lon;timestamp;P1;durP1;ratioP1;P2;durP2;ratioP2
84411;SDS011;74609;44.028;20.950;2024-01-16T00:01:23;2.55;;;1.67;;
84411;SDS011;74609;44.028;20.950;2024-01-16T00:03:49;2.08;;;1.55;;
84411;SDS011;74609;44.028;20.950;2024-01-16T00:06:15;2.47;;;1.83;;
84411;SDS011;74609;44.028;20.950;2024-01-16T00:08:41;1.52;;;1.25;;
84411;SDS011;74609;44.028;20.950;2024-01-16T00:11:07;1.50;;;1.40;;
84411;SDS011;74609;44.028;20.950;2024-01-16T00:13:33;1.42;;;1.30;;
84411;SDS011;74609;44.028;20.950;2024-01-16T00:16:01;1.27;;;1.17;;
84411;SDS011;74609;44.028;20.950;2024-01-16T00:18:28;1.00;;;0.90;;
84411;SDS011;74609;44.028;20.950;2024-01-16T00:20:54;1.77;;;1.38;;
84411;SDS011;74609;44.028;20.950;2024-01-16T00:23:20;2.05;;;1.20;;
84411;SDS011;74609;44.028;20.950;2024-01-16T00:25:46;6.07;;;2.95;;
84411;SDS011;74609;44.028;20.950;2024-01-16T00:28:12;4.88;;;3.10;;
84411;SDS011;74609;44.028;20.950;2024-01-16T00:30:39;6.68;;;3.45;;
84411;SDS011;74609;44.028;20.950;2024-01-16T00:33:05;8.13;;;3.42;;
84411;SDS011;74609;44.028;20.950;2024-01-16T00:35:31;6.65;;;3.50;;
84411;SDS011;74609;44.028;20.950;2024-01-16T00:37:57;4.75;;;2.10;;
84411;SDS011;74609;44.028;20.950;2024-01-16T00:40:23;2.60;;;1.63;;
84411;SDS011;74609;44.028;20.950;2024-01-16T00:42:49;2.20;;;1.30;;
84411;SDS011;74609;44.028;20.950;2024-01-16T00:45:15;1.75;;;1.30;;
84411;SDS011;74609;44.028;20.950;2024-01-16T00:47:42;0.80;;;0.75;;
84411;SDS011;74609;44.028;20.950;2024-01-16T00:50:08;1.45;;;1.10;;
84411;SDS011;74609;44.028;20.950;2024-01-16T00:52:34;1.00;;;0.90;;
84411;SDS011;74609;44.028;20.950;2024-01-16T00:55:00;1.30;;;1.00;;
84411;SDS011;74609;44.028;20.950;2024-01-16T00:57:26;1.35;;;1.10;;
84411;SDS011;74609;44.028;20.950;2024-01-16T00:59:52;1.00;;;0.90;;
84411;SDS011;74609;44.028;20.950;2024-01-16T01:02:21;1.80;;;1.30;;
84411;SDS011;74609;44.028;20.950;2024-01-16T01:04:50;3.53;;;1.95;;
84411;SDS011;74609;44.028;20.950;2024-01-16T01:07:16;1.73;;;1.10;;
84411;SDS011;74609;44.028;20.950;2024-01-16T01:09:42;2.22;;;1.58;;
84411;SDS011;74609;44.028;20.950;2024-01-16T01:12:08;2.25;;;1.50;;
84411;SDS011;74609;44.028;20.950;2024-01-16T01:14:35;2.00;;;1.60;;
84411;SDS011;74609;44.028;20.950;2024-01-16T01:17:01;2.42;;;1.40;;
84411;SDS011;74609;44.028;20.950;2024-01-16T01:19:27;2.25;;;1.50;;
84411;SDS011;74609;44.028;20.950;2024-01-16T01:21:53;2.60;;;1.70;;
84411;SDS011;74609;44.028;20.950;2024-01-16T01:24:19;1.58;;;1.20;;
84411;SDS011;74609;44.028;20.950;2024-01-16T01:26:45;2.20;;;1.42;;
84411;SDS011;74609;44.028;20.950;2024-01-16T01:29:11;5.97;;;3.70;;
84411;SDS011;74609;44.028;20.950;2024-01-16T01:31:37;2.85;;;1.75;;
84411;SDS011;74609;44.028;20.950;2024-01-16T01:34:03;1.88;;;1.63;;
84411;SDS011;74609;44.028;20.950;2024-01-16T01:36:29;2.28;;;1.33;;
84411;SDS011;74609;44.028;20.950;2024-01-16T01:38:56;1.92;;;1.48;;
84411;SDS011;74609;44.028;20.950;2024-01-16T01:41:22;2.03;;;1.25;;
84411;SDS011;74609;44.028;20.950;2024-01-16T01:43:48;2.55;;;1.52;;
84411;SDS011;74609;44.028;20.950;2024-01-16T01:46:18;2.00;;;1.45;;
84411;SDS011;74609;44.028;20.950;2024-01-16T01:48:46;1.30;;;1.00;;
84411;SDS011;74609;44.028;20.950;2024-01-16T01:51:13;2.15;;;1.48;;
84411;SDS011;74609;44.028;20.950;2024-01-16T01:53:39;1.95;;;1.30;;
84411;SDS011;74609;44.028;20.950;2024-01-16T01:56:07;2.85;;;1.80;;
84411;SDS011;74609;44.028;20.950;2024-01-16T01:58:34;3.80;;;2.47;;
84411;SDS011;74609;44.028;20.950;2024-01-16T02:01:00;4.43;;;2.92;;
84411;SDS011;74609;44.028;20.950;2024-01-16T02:03:27;6.65;;;3.58;;
84411;SDS011;74609;44.028;20.950;2024-01-16T02:05:55;7.63;;;4.35;;
84411;SDS011;74609;44.028;20.950;2024-01-16T02:08:21;8.65;;;4.80;;
84411;SDS011;74609;44.028;20.950;2024-01-16T02:10:47;8.13;;;4.50;;
84411;SDS011;74609;44.028;20.950;2024-01-16T02:13:15;5.20;;;2.88;;
84411;SDS011;74609;44.028;20.950;2024-01-16T02:15:46;5.25;;;3.65;;
84411;SDS011;74609;44.028;20.950;2024-01-16T02:18:12;4.80;;;3.55;;
84411;SDS011;74609;44.028;20.950;2024-01-16T02:20:38;7.10;;;3.75;;
84411;SDS011;74609;44.028;20.950;2024-01-16T02:23:04;5.13;;;3.38;;
84411;SDS011;74609;44.028;20.950;2024-01-16T02:25:31;5.63;;;4.03;;
84411;SDS011;74609;44.028;20.950;2024-01-16T02:27:57;8.77;;;4.88;;
84411;SDS011;74609;44.028;20.950;2024-01-16T02:30:23;6.78;;;4.38;;
84411;SDS011;74609;44.028;20.950;2024-01-16T02:32:50;6.20;;;4.20;;
84411;SDS011;74609;44.028;20.950;2024-01-16T02:35:16;5.55;;;3.30;;
84411;SDS011;74609;44.028;20.950;2024-01-16T02:37:43;4.32;;;3.28;;
84411;SDS011;74609;44.028;20.950;2024-01-16T02:40:10;4.65;;;3.45;;
84411;SDS011;74609;44.028;20.950;2024-01-16T02:42:36;3.75;;;2.97;;
84411;SDS011;74609;44.028;20.950;2024-01-16T02:45:03;5.70;;;3.58;;
84411;SDS011;74609;44.028;20.950;2024-01-16T02:47:29;5.95;;;4.10;;
84411;SDS011;74609;44.028;20.950;2024-01-16T02:49:56;7.85;;;4.68;;
84411;SDS011;74609;44.028;20.950;2024-01-16T02:52:22;8.93;;;5.22;;
84411;SDS011;74609;44.028;20.950;2024-01-16T02:54:48;7.50;;;4.53;;
84411;SDS011;74609;44.028;20.950;2024-01-16T02:57:14;7.82;;;4.68;;
84411;SDS011;74609;44.028;20.950;2024-01-16T02:59:43;7.93;;;4.95;;
84411;SDS011;74609;44.028;20.950;2024-01-16T03:02:09;6.90;;;4.45;;
84411;SDS011;74609;44.028;20.950;2024-01-16T03:04:36;7.22;;;4.03;;
84411;SDS011;74609;44.028;20.950;2024-01-16T03:07:03;7.85;;;4.93;;
84411;SDS011;74609;44.028;20.950;2024-01-16T03:09:29;6.22;;;4.50;;
84411;SDS011;74609;44.028;20.950;2024-01-16T03:11:56;6.60;;;4.43;;
84411;SDS011;74609;44.028;20.950;2024-01-16T03:14:23;6.45;;;3.90;;
84411;SDS011;74609;44.028;20.950;2024-01-16T03:16:49;6.18;;;3.58;;
84411;SDS011;74609;44.028;20.950;2024-01-16T03:19:15;3.95;;;2.42;;
84411;SDS011;74609;44.028;20.950;2024-01-16T03:21:41;3.17;;;2.10;;
84411;SDS011;74609;44.028;20.950;2024-01-16T03:24:08;4.18;;;2.30;;
84411;SDS011;74609;44.028;20.950;2024-01-16T03:26:35;2.90;;;1.95;;
84411;SDS011;74609;44.028;20.950;2024-01-16T03:29:03;3.05;;;1.85;;
84411;SDS011;74609;44.028;20.950;2024-01-16T03:31:29;1.55;;;1.15;;
84411;SDS011;74609;44.028;20.950;2024-01-16T03:33:55;1.48;;;1.10;;
84411;SDS011;74609;44.028;20.950;2024-01-16T03:36:21;0.82;;;0.77;;
84411;SDS011;74609;44.028;20.950;2024-01-16T03:38:48;1.50;;;1.25;;
84411;SDS011;74609;44.028;20.950;2024-01-16T03:41:14;1.67;;;1.23;;
84411;SDS011;74609;44.028;20.950;2024-01-16T03:43:40;1.77;;;1.30;;
84411;SDS011;74609;44.028;20.950;2024-01-16T03:46:06;1.60;;;1.23;;
84411;SDS011;74609;44.028;20.950;2024-01-16T03:48:32;1.13;;;1.00;;
84411;SDS011;74609;44.028;20.950;2024-01-16T03:50:59;1.63;;;1.02;;
84411;SDS011;74609;44.028;20.950;2024-01-16T03:53:25;0.85;;;0.85;;
84411;SDS011;74609;44.028;20.950;2024-01-16T03:55:51;1.40;;;1.00;;
84411;SDS011;74609;44.028;20.950;2024-01-16T03:58:17;1.25;;;1.15;;
84411;SDS011;74609;44.028;20.950;2024-01-16T04:00:43;3.85;;;1.95;;
84411;SDS011;74609;44.028;20.950;2024-01-16T04:03:09;1.70;;;1.30;;
84411;SDS011;74609;44.028;20.950;2024-01-16T04:05:36;3.38;;;2.15;;
84411;SDS011;74609;44.028;20.950;2024-01-16T04:08:02;1.80;;;1.30;;
84411;SDS011;74609;44.028;20.950;2024-01-16T04:10:28;1.77;;;1.15;;
84411;SDS011;74609;44.028;20.950;2024-01-16T04:12:54;1.40;;;1.20;;
84411;SDS011;74609;44.028;20.950;2024-01-16T04:15:20;1.77;;;1.25;;
84411;SDS011;74609;44.028;20.950;2024-01-16T04:17:47;3.28;;;1.25;;
84411;SDS011;74609;44.028;20.950;2024-01-16T04:20:13;1.05;;;0.88;;
84411;SDS011;74609;44.028;20.950;2024-01-16T04:22:40;1.40;;;1.30;;
84411;SDS011;74609;44.028;20.950;2024-01-16T04:25:06;1.50;;;1.27;;
84411;SDS011;74609;44.028;20.950;2024-01-16T04:27:33;1.48;;;1.30;;
84411;SDS011;74609;44.028;20.950;2024-01-16T04:29:59;1.83;;;1.30;;
84411;SDS011;74609;44.028;20.950;2024-01-16T04:32:25;2.75;;;2.03;;
84411;SDS011;74609;44.028;20.950;2024-01-16T04:34:51;5.15;;;2.35;;
84411;SDS011;74609;44.028;20.950;2024-01-16T04:37:17;2.67;;;1.75;;
84411;SDS011;74609;44.028;20.950;2024-01-16T04:39:43;2.88;;;1.77;;
84411;SDS011;74609;44.028;20.950;2024-01-16T04:42:09;2.25;;;1.73;;
84411;SDS011;74609;44.028;20.950;2024-01-16T04:44:36;2.83;;;1.95;;
84411;SDS011;74609;44.028;20.950;2024-01-16T04:47:02;2.47;;;1.92;;
84411;SDS011;74609;44.028;20.950;2024-01-16T04:49:28;2.28;;;1.70;;
84411;SDS011;74609;44.028;20.950;2024-01-16T04:51:55;2.95;;;1.90;;
84411;SDS011;74609;44.028;20.950;2024-01-16T04:54:21;3.80;;;1.80;;
84411;SDS011;74609;44.028;20.950;2024-01-16T04:56:47;2.55;;;1.90;;
84411;SDS011;74609;44.028;20.950;2024-01-16T04:59:13;3.00;;;2.00;;
84411;SDS011;74609;44.028;20.950;2024-01-16T05:01:39;1.90;;;1.70;;
84411;SDS011;74609;44.028;20.950;2024-01-16T05:04:05;1.83;;;1.63;;
84411;SDS011;74609;44.028;20.950;2024-01-16T05:06:33;3.63;;;2.05;;
84411;SDS011;74609;44.028;20.950;2024-01-16T05:08:59;2.92;;;1.65;;
84411;SDS011;74609;44.028;20.950;2024-01-16T05:11:25;4.80;;;2.17;;
84411;SDS011;74609;44.028;20.950;2024-01-16T05:13:51;3.08;;;2.13;;
84411;SDS011;74609;44.028;20.950;2024-01-16T05:16:24;4.75;;;2.25;;
84411;SDS011;74609;44.028;20.950;2024-01-16T05:18:51;2.95;;;1.80;;
84411;SDS011;74609;44.028;20.950;2024-01-16T05:21:17;2.50;;;1.90;;
84411;SDS011;74609;44.028;20.950;2024-01-16T05:23:43;3.30;;;2.20;;
84411;SDS011;74609;44.028;20.950;2024-01-16T05:26:09;2.45;;;1.80;;
84411;SDS011;74609;44.028;20.950;2024-01-16T05:28:35;6.32;;;2.30;;
84411;SDS011;74609;44.028;20.950;2024-01-16T05:31:01;4.90;;;3.35;;
84411;SDS011;74609;44.028;20.950;2024-01-16T05:33:27;3.13;;;1.90;;
84411;SDS011;74609;44.028;20.950;2024-01-16T05:35:53;2.92;;;2.20;;
84411;SDS011;74609;44.028;20.950;2024-01-16T05:38:21;3.28;;;2.70;;
84411;SDS011;74609;44.028;20.950;2024-01-16T05:40:47;4.65;;;2.15;;
84411;SDS011;74609;44.028;20.950;2024-01-16T05:43:13;2.75;;;2.08;;
84411;SDS011;74609;44.028;20.950;2024-01-16T05:45:39;4.18;;;2.50;;
84411;SDS011;74609;44.028;20.950;2024-01-16T05:48:05;2.97;;;1.90;;
84411;SDS011;74609;44.028;20.950;2024-01-16T05:50:34;4.32;;;1.90;;
84411;SDS011;74609;44.028;20.950;2024-01-16T05:53:00;3.60;;;2.35;;
84411;SDS011;74609;44.028;20.950;2024-01-16T05:55:26;4.70;;;2.65;;
84411;SDS011;74609;44.028;20.950;2024-01-16T05:57:52;4.32;;;2.58;;
84411;SDS011;74609;44.028;20.950;2024-01-16T06:00:18;5.55;;;2.95;;
84411;SDS011;74609;44.028;20.950;2024-01-16T06:02:47;4.20;;;3.47;;
84411;SDS011;74609;44.028;20.950;2024-01-16T06:05:13;4.13;;;2.72;;
84411;SDS011;74609;44.028;20.950;2024-01-16T06:07:43;3.58;;;2.50;;
84411;SDS011;74609;44.028;20.950;2024-01-16T06:10:11;5.30;;;2.50;;
84411;SDS011;74609;44.028;20.950;2024-01-16T06:12:37;3.88;;;2.80;;
84411;SDS011;74609;44.028;20.950;2024-01-16T06:15:03;7.43;;;2.83;;
84411;SDS011;74609;44.028;20.950;2024-01-16T06:17:29;5.60;;;3.15;;
84411;SDS011;74609;44.028;20.950;2024-01-16T06:19:55;8.00;;;3.15;;
84411;SDS011;74609;44.028;20.950;2024-01-16T06:22:21;4.53;;;2.58;;
84411;SDS011;74609;44.028;20.950;2024-01-16T06:24:47;5.65;;;3.80;;
84411;SDS011;74609;44.028;20.950;2024-01-16T06:27:14;5.53;;;2.97;;
84411;SDS011;74609;44.028;20.950;2024-01-16T06:29:47;8.93;;;5.82;;
84411;SDS011;74609;44.028;20.950;2024-01-16T06:32:13;7.53;;;3.63;;
84411;SDS011;74609;44.028;20.950;2024-01-16T06:34:40;4.78;;;3.05;;
84411;SDS011;74609;44.028;20.950;2024-01-16T06:37:06;7.57;;;6.00;;
84411;SDS011;74609;44.028;20.950;2024-01-16T06:39:33;6.57;;;4.10;;
84411;SDS011;74609;44.028;20.950;2024-01-16T06:41:59;9.48;;;7.30;;
84411;SDS011;74609;44.028;20.950;2024-01-16T06:44:25;10.63;;;7.00;;
84411;SDS011;74609;44.028;20.950;2024-01-16T06:46:52;5.13;;;3.67;;
84411;SDS011;74609;44.028;20.950;2024-01-16T06:49:18;7.32;;;3.72;;
84411;SDS011;74609;44.028;20.950;2024-01-16T06:51:44;7.47;;;3.72;;
84411;SDS011;74609;44.028;20.950;2024-01-16T06:54:10;5.65;;;3.10;;
84411;SDS011;74609;44.028;20.950;2024-01-16T06:56:36;9.68;;;3.92;;
84411;SDS011;74609;44.028;20.950;2024-01-16T06:59:02;23.90;;;15.80;;
84411;SDS011;74609;44.028;20.950;2024-01-16T07:01:28;28.85;;;20.73;;
84411;SDS011;74609;44.028;20.950;2024-01-16T07:03:55;18.20;;;12.80;;
84411;SDS011;74609;44.028;20.950;2024-01-16T07:06:21;12.88;;;8.18;;
84411;SDS011;74609;44.028;20.950;2024-01-16T07:08:47;14.40;;;9.43;;
84411;SDS011;74609;44.028;20.950;2024-01-16T07:11:14;14.80;;;8.63;;
84411;SDS011;74609;44.028;20.950;2024-01-16T09:51:52;7.65;;;5.78;;
84411;SDS011;74609;44.028;20.950;2024-01-16T09:54:18;11.30;;;7.22;;
84411;SDS011;74609;44.028;20.950;2024-01-16T09:56:44;10.82;;;7.55;;
84411;SDS011;74609;44.028;20.950;2024-01-16T09:59:12;10.38;;;7.07;;
84411;SDS011;74609;44.028;20.950;2024-01-16T10:01:41;14.68;;;13.15;;
84411;SDS011;74609;44.028;20.950;2024-01-16T10:04:08;9.15;;;6.40;;
84411;SDS011;74609;44.028;20.950;2024-01-16T10:06:34;8.77;;;5.30;;
84411;SDS011;74609;44.028;20.950;2024-01-16T10:09:01;7.75;;;5.65;;
84411;SDS011;74609;44.028;20.950;2024-01-16T10:11:27;9.07;;;5.47;;
84411;SDS011;74609;44.028;20.950;2024-01-16T10:13:54;7.30;;;5.03;;
84411;SDS011;74609;44.028;20.950;2024-01-16T10:16:20;6.50;;;4.75;;
84411;SDS011;74609;44.028;20.950;2024-01-16T10:18:46;8.80;;;5.25;;
84411;SDS011;74609;44.028;20.950;2024-01-16T10:21:22;7.40;;;5.40;;
84411;SDS011;74609;44.028;20.950;2024-01-16T10:23:49;8.60;;;5.50;;
84411;SDS011;74609;44.028;20.950;2024-01-16T10:26:15;7.40;;;4.20;;
84411;SDS011;74609;44.028;20.950;2024-01-16T10:28:43;10.07;;;5.50;;
84411;SDS011;74609;44.028;20.950;2024-01-16T10:31:09;9.45;;;4.85;;
84411;SDS011;74609;44.028;20.950;2024-01-16T10:33:36;8.48;;;4.97;;
84411;SDS011;74609;44.028;20.950;2024-01-16T10:36:14;6.43;;;4.80;;
84411;SDS011;74609;44.028;20.950;2024-01-16T10:38:45;8.45;;;4.93;;
84411;SDS011;74609;44.028;20.950;2024-01-16T10:41:15;8.07;;;4.72;;
84411;SDS011;74609;44.028;20.950;2024-01-16T10:46:13;7.25;;;4.75;;
84411;SDS011;74609;44.028;20.950;2024-01-16T10:48:40;9.18;;;4.78;;
84411;SDS011;74609;44.028;20.950;2024-01-16T10:51:07;8.20;;;4.50;;
84411;SDS011;74609;44.028;20.950;2024-01-16T10:53:34;6.85;;;3.97;;
84411;SDS011;74609;44.028;20.950;2024-01-16T10:56:00;8.32;;;5.07;;
84411;SDS011;74609;44.028;20.950;2024-01-16T10:58:27;6.97;;;4.75;;
84411;SDS011;74609;44.028;20.950;2024-01-16T11:00:56;7.45;;;4.43;;
84411;SDS011;74609;44.028;20.950;2024-01-16T11:05:48;5.68;;;4.03;;
84411;SDS011;74609;44.028;20.950;2024-01-16T11:08:15;6.30;;;4.07;;
84411;SDS011;74609;44.028;20.950;2024-01-16T11:10:42;5.88;;;4.07;;
84411;SDS011;74609;44.028;20.950;2024-01-16T11:13:08;5.68;;;3.70;;
84411;SDS011;74609;44.028;20.950;2024-01-16T11:15:36;4.43;;;3.50;;
84411;SDS011;74609;44.028;20.950;2024-01-16T11:18:03;5.28;;;2.15;;
84411;SDS011;74609;44.028;20.950;2024-01-16T11:20:30;3.13;;;1.30;;
84411;SDS011;74609;44.028;20.950;2024-01-16T11:22:57;2.55;;;1.40;;
84411;SDS011;74609;44.028;20.950;2024-01-16T11:25:35;2.55;;;1.30;;
84411;SDS011;74609;44.028;20.950;2024-01-16T11:28:08;1.70;;;1.13;;
84411;SDS011;74609;44.028;20.950;2024-01-16T11:30:35;5.20;;;1.40;;
84411;SDS011;74609;44.028;20.950;2024-01-16T11:33:01;4.25;;;1.45;;
84411;SDS011;74609;44.028;20.950;2024-01-16T11:35:33;1.65;;;1.20;;
84411;SDS011;74609;44.028;20.950;2024-01-16T11:38:17;1.98;;;1.30;;
84411;SDS011;74609;44.028;20.950;2024-01-16T11:40:46;2.40;;;1.15;;
84411;SDS011;74609;44.028;20.950;2024-01-16T11:45:57;2.70;;;1.42;;
84411;SDS011;74609;44.028;20.950;2024-01-16T11:48:24;3.35;;;1.55;;
84411;SDS011;74609;44.028;20.950;2024-01-16T11:50:50;3.20;;;1.48;;
84411;SDS011;74609;44.028;20.950;2024-01-16T11:53:32;1.63;;;1.30;;
84411;SDS011;74609;44.028;20.950;2024-01-16T11:58:35;2.20;;;1.50;;
84411;SDS011;74609;44.028;20.950;2024-01-16T12:01:08;4.45;;;1.88;;
84411;SDS011;74609;44.028;20.950;2024-01-16T12:03:36;5.13;;;2.42;;
84411;SDS011;74609;44.028;20.950;2024-01-16T12:06:03;5.15;;;2.60;;
84411;SDS011;74609;44.028;20.950;2024-01-16T12:08:31;6.38;;;2.70;;
84411;SDS011;74609;44.028;20.950;2024-01-16T12:10:58;4.38;;;1.90;;
84411;SDS011;74609;44.028;20.950;2024-01-16T12:13:27;4.53;;;1.80;;
84411;SDS011;74609;44.028;20.950;2024-01-16T12:16:03;4.13;;;2.22;;
84411;SDS011;74609;44.028;20.950;2024-01-16T12:18:29;4.28;;;2.30;;
84411;SDS011;74609;44.028;20.950;2024-01-16T12:20:55;3.97;;;2.90;;
84411;SDS011;74609;44.028;20.950;2024-01-16T12:23:21;5.22;;;2.50;;
84411;SDS011;74609;44.028;20.950;2024-01-16T12:25:51;2.15;;;1.70;;
84411;SDS011;74609;44.028;20.950;2024-01-16T12:28:20;3.05;;;2.35;;
84411;SDS011;74609;44.028;20.950;2024-01-16T12:30:50;4.97;;;2.75;;
84411;SDS011;74609;44.028;20.950;2024-01-16T12:33:16;3.42;;;2.17;;
84411;SDS011;74609;44.028;20.950;2024-01-16T12:35:43;10.23;;;6.32;;
84411;SDS011;74609;44.028;20.950;2024-01-16T12:38:13;5.20;;;3.70;;
84411;SDS011;74609;44.028;20.950;2024-01-16T12:40:40;2.95;;;2.10;;
84411;SDS011;74609;44.028;20.950;2024-01-16T12:43:08;3.60;;;1.70;;
84411;SDS011;74609;44.028;20.950;2024-01-16T12:45:34;3.97;;;2.03;;
84411;SDS011;74609;44.028;20.950;2024-01-16T12:48:01;3.17;;;1.85;;
84411;SDS011;74609;44.028;20.950;2024-01-16T12:50:29;2.78;;;1.73;;
84411;SDS011;74609;44.028;20.950;2024-01-16T12:53:08;2.80;;;1.88;;
84411;SDS011;74609;44.028;20.950;2024-01-16T12:55:35;2.60;;;1.55;;
84411;SDS011;74609;44.028;20.950;2024-01-16T13:00:41;2.88;;;1.70;;
84411;SDS011;74609;44.028;20.950;2024-01-16T13:03:07;1.88;;;1.58;;
84411;SDS011;74609;44.028;20.950;2024-01-16T13:05:34;3.08;;;1.98;;
84411;SDS011;74609;44.028;20.950;2024-01-16T13:08:03;5.45;;;1.88;;
84411;SDS011;74609;44.028;20.950;2024-01-16T13:10:29;3.40;;;1.73;;
84411;SDS011;74609;44.028;20.950;2024-01-16T13:15:40;6.80;;;1.95;;
84411;SDS011;74609;44.028;20.950;2024-01-16T13:18:18;3.40;;;1.90;;
84411;SDS011;74609;44.028;20.950;2024-01-16T13:20:45;2.75;;;1.50;;
84411;SDS011;74609;44.028;20.950;2024-01-16T13:23:14;3.83;;;1.98;;
84411;SDS011;74609;44.028;20.950;2024-01-16T13:25:42;3.58;;;1.42;;
84411;SDS011;74609;44.028;20.950;2024-01-16T13:28:09;2.58;;;1.45;;
84411;SDS011;74609;44.028;20.950;2024-01-16T13:30:35;9.55;;;5.00;;
84411;SDS011;74609;44.028;20.950;2024-01-16T13:33:01;9.85;;;3.80;;
84411;SDS011;74609;44.028;20.950;2024-01-16T13:35:29;6.53;;;3.40;;
84411;SDS011;74609;44.028;20.950;2024-01-16T13:37:55;5.13;;;2.70;;
84411;SDS011;74609;44.028;20.950;2024-01-16T13:40:21;5.55;;;2.17;;
84411;SDS011;74609;44.028;20.950;2024-01-16T13:42:48;4.22;;;2.33;;
84411;SDS011;74609;44.028;20.950;2024-01-16T13:45:14;4.43;;;2.63;;
84411;SDS011;74609;44.028;20.950;2024-01-16T13:47:41;6.82;;;3.25;;
84411;SDS011;74609;44.028;20.950;2024-01-16T13:50:08;7.00;;;3.17;;
84411;SDS011;74609;44.028;20.950;2024-01-16T13:52:34;10.18;;;3.95;;
84411;SDS011;74609;44.028;20.950;2024-01-16T13:55:01;12.77;;;6.45;;
84411;SDS011;74609;44.028;20.950;2024-01-16T13:57:30;12.68;;;6.72;;
84411;SDS011;74609;44.028;20.950;2024-01-16T13:59:57;11.20;;;6.30;;
84411;SDS011;74609;44.028;20.950;2024-01-16T14:02:24;6.22;;;3.55;;
84411;SDS011;74609;44.028;20.950;2024-01-16T14:04:50;6.28;;;3.30;;
84411;SDS011;74609;44.028;20.950;2024-01-16T14:07:16;9.70;;;3.65;;
84411;SDS011;74609;44.028;20.950;2024-01-16T14:09:42;8.30;;;4.60;;
84411;SDS011;74609;44.028;20.950;2024-01-16T14:12:08;9.63;;;4.72;;
84411;SDS011;74609;44.028;20.950;2024-01-16T14:14:34;8.35;;;4.25;;
84411;SDS011;74609;44.028;20.950;2024-01-16T14:17:01;12.27;;;5.85;;
84411;SDS011;74609;44.028;20.950;2024-01-16T14:19:28;9.82;;;6.03;;
84411;SDS011;74609;44.028;20.950;2024-01-16T14:21:55;20.85;;;6.55;;
84411;SDS011;74609;44.028;20.950;2024-01-16T14:24:21;21.30;;;11.27;;
84411;SDS011;74609;44.028;20.950;2024-01-16T14:26:47;14.02;;;7.30;;
84411;SDS011;74609;44.028;20.950;2024-01-16T14:29:13;7.10;;;4.75;;
84411;SDS011;74609;44.028;20.950;2024-01-16T14:31:40;3.70;;;2.90;;
84411;SDS011;74609;44.028;20.950;2024-01-16T14:34:13;8.90;;;5.30;;
84411;SDS011;74609;44.028;20.950;2024-01-16T14:36:40;8.45;;;5.75;;
84411;SDS011;74609;44.028;20.950;2024-01-16T14:39:06;7.03;;;4.35;;
84411;SDS011;74609;44.028;20.950;2024-01-16T14:41:38;12.05;;;5.38;;
84411;SDS011;74609;44.028;20.950;2024-01-16T14:44:05;7.75;;;4.80;;
84411;SDS011;74609;44.028;20.950;2024-01-16T14:46:31;11.48;;;5.60;;
84411;SDS011;74609;44.028;20.950;2024-01-16T14:48:58;13.45;;;7.10;;
84411;SDS011;74609;44.028;20.950;2024-01-16T14:51:24;16.50;;;8.50;;
84411;SDS011;74609;44.028;20.950;2024-01-16T14:53:50;10.10;;;5.85;;
84411;SDS011;74609;44.028;20.950;2024-01-16T14:56:16;14.20;;;6.68;;
84411;SDS011;74609;44.028;20.950;2024-01-16T14:58:44;14.27;;;6.85;;
84411;SDS011;74609;44.028;20.950;2024-01-16T15:01:10;9.68;;;5.15;;
84411;SDS011;74609;44.028;20.950;2024-01-16T15:03:36;12.35;;;5.65;;
84411;SDS011;74609;44.028;20.950;2024-01-16T15:06:03;7.05;;;4.60;;
84411;SDS011;74609;44.028;20.950;2024-01-16T15:08:30;8.15;;;4.88;;
84411;SDS011;74609;44.028;20.950;2024-01-16T15:10:57;13.30;;;6.80;;
84411;SDS011;74609;44.028;20.950;2024-01-16T15:13:27;10.82;;;5.47;;
84411;SDS011;74609;44.028;20.950;2024-01-16T15:15:53;9.60;;;6.10;;
84411;SDS011;74609;44.028;20.950;2024-01-16T15:18:21;11.00;;;5.18;;
84411;SDS011;74609;44.028;20.950;2024-01-16T15:20:47;26.10;;;11.00;;
84411;SDS011;74609;44.028;20.950;2024-01-16T15:23:13;22.45;;;11.00;;
84411;SDS011;74609;44.028;20.950;2024-01-16T15:25:39;18.63;;;7.65;;
84411;SDS011;74609;44.028;20.950;2024-01-16T15:28:05;21.77;;;12.30;;
84411;SDS011;74609;44.028;20.950;2024-01-16T15:30:31;23.98;;;15.85;;
84411;SDS011;74609;44.028;20.950;2024-01-16T15:32:58;23.27;;;14.55;;
84411;SDS011;74609;44.028;20.950;2024-01-16T15:35:24;19.15;;;10.98;;
84411;SDS011;74609;44.028;20.950;2024-01-16T15:37:50;16.33;;;10.00;;
84411;SDS011;74609;44.028;20.950;2024-01-16T15:40:17;21.98;;;12.00;;
84411;SDS011;74609;44.028;20.950;2024-01-16T15:42:43;16.48;;;9.80;;
84411;SDS011;74609;44.028;20.950;2024-01-16T15:45:10;19.80;;;9.63;;
84411;SDS011;74609;44.028;20.950;2024-01-16T15:47:36;14.50;;;10.10;;
84411;SDS011;74609;44.028;20.950;2024-01-16T15:50:02;15.95;;;9.77;;
84411;SDS011;74609;44.028;20.950;2024-01-16T15:52:29;16.08;;;11.13;;
84411;SDS011;74609;44.028;20.950;2024-01-16T15:54:56;15.57;;;11.13;;
84411;SDS011;74609;44.028;20.950;2024-01-16T15:57:22;13.75;;;9.40;;
84411;SDS011;74609;44.028;20.950;2024-01-16T15:59:48;16.88;;;9.38;;
84411;SDS011;74609;44.028;20.950;2024-01-16T16:02:14;13.93;;;7.63;;
84411;SDS011;74609;44.028;20.950;2024-01-16T16:04:40;15.52;;;7.63;;
84411;SDS011;74609;44.028;20.950;2024-01-16T16:07:06;11.98;;;7.65;;
84411;SDS011;74609;44.028;20.950;2024-01-16T16:09:33;14.73;;;7.95;;
84411;SDS011;74609;44.028;20.950;2024-01-16T16:12:00;16.65;;;8.93;;
84411;SDS011;74609;44.028;20.950;2024-01-16T16:14:29;20.73;;;12.88;;
84411;SDS011;74609;44.028;20.950;2024-01-16T16:17:00;23.88;;;15.15;;
84411;SDS011;74609;44.028;20.950;2024-01-16T16:19:29;20.27;;;11.38;;
84411;SDS011;74609;44.028;20.950;2024-01-16T16:21:56;22.35;;;12.10;;
84411;SDS011;74609;44.028;20.950;2024-01-16T16:24:22;19.70;;;12.13;;
84411;SDS011;74609;44.028;20.950;2024-01-16T16:26:58;19.80;;;12.82;;
84411;SDS011;74609;44.028;20.950;2024-01-16T16:29:25;19.10;;;12.70;;
84411;SDS011;74609;44.028;20.950;2024-01-16T16:31:51;22.98;;;11.68;;
84411;SDS011;74609;44.028;20.950;2024-01-16T16:34:17;28.27;;;15.63;;
84411;SDS011;74609;44.028;20.950;2024-01-16T16:36:44;23.45;;;15.73;;
84411;SDS011;74609;44.028;20.950;2024-01-16T16:39:10;25.35;;;14.52;;
84411;SDS011;74609;44.028;20.950;2024-01-16T16:41:41;26.00;;;13.23;;
84411;SDS011;74609;44.028;20.950;2024-01-16T16:44:07;26.13;;;16.95;;
84411;SDS011;74609;44.028;20.950;2024-01-16T16:46:34;26.35;;;16.45;;
84411;SDS011;74609;44.028;20.950;2024-01-16T16:49:00;35.67;;;20.17;;
84411;SDS011;74609;44.028;20.950;2024-01-16T16:51:27;35.45;;;22.42;;
84411;SDS011;74609;44.028;20.950;2024-01-16T16:53:53;36.03;;;20.65;;
84411;SDS011;74609;44.028;20.950;2024-01-16T16:56:23;36.90;;;20.67;;
84411;SDS011;74609;44.028;20.950;2024-01-16T16:58:50;30.90;;;18.70;;
84411;SDS011;74609;44.028;20.950;2024-01-16T17:01:17;36.05;;;21.40;;
84411;SDS011;74609;44.028;20.950;2024-01-16T17:03:46;43.40;;;25.17;;
84411;SDS011;74609;44.028;20.950;2024-01-16T17:06:17;50.72;;;28.50;;
84411;SDS011;74609;44.028;20.950;2024-01-16T17:08:44;46.17;;;25.90;;
84411;SDS011;74609;44.028;20.950;2024-01-16T17:11:11;46.80;;;27.70;;
84411;SDS011;74609;44.028;20.950;2024-01-16T17:13:38;36.90;;;23.52;;
84411;SDS011;74609;44.028;20.950;2024-01-16T17:16:05;40.53;;;24.17;;
84411;SDS011;74609;44.028;20.950;2024-01-16T17:18:32;35.83;;;23.05;;
84411;SDS011;74609;44.028;20.950;2024-01-16T17:21:00;41.25;;;24.85;;
84411;SDS011;74609;44.028;20.950;2024-01-16T17:23:26;37.63;;;25.10;;